(°C)
-7°
-7°
-7°
-7°
-7°
-8°
-7°
(°C)
-13°
-13°
-13°
-13°
-13°
-12°
-12°
NNO
NNO
NNO
NNO
NNO
NNO
NNO
(km/h)
14-27
13-26
12-24
11-22
9-20
7-17
6-14
(mm)
0
0
0
0
0
0
0
(%)
3
2
1
1
1
0
0

Élévation du soleil

/ -59.5°
sun-icon
UV 2
06:56
16:51
Dernier croissant (295°)
02:23
12:03

METAR pour Barnstable (KHYA)

Heure Conditions Température/
Point de rosée
Vent Visibilité Météo Nuages Pression Changement Brut
VFR -6.1°C / °C 340º 7kt >10km - Clear 1029 - KHYA 270556Z AUTO 34007KT 10SM CLR M06/M15 A3040 RMK AO2 SLP296 T10611150 11039 21061 51004
VFR -6.1°C / °C 330º 8kt Gust 17kt >10km - Clear 1029 - KHYA 270456Z AUTO 33008G17KT 10SM CLR M06/M15 A3040 RMK AO2 SLP296 T10611150 400001061
VFR -6.1°C / °C 340º 9kt Gust 17kt >10km - Clear 1029 - KHYA 270356Z AUTO 34009G17KT 10SM CLR M06/M16 A3040 RMK AO2 SLP295 T10611156
VFR -5.6°C / °C 350º 14kt Gust 22kt >10km - Clear 1029 - KHYA 270256Z 35014G22KT 10SM CLR M06/M16 A3039 RMK AO2 SLP292 T10561161 51021
VFR -5°C / °C 340º 13kt Gust 20kt >10km - Few Clouds 4500ft 1028 - KHYA 270156Z 34013G20KT 10SM FEW045 M05/M17 A3037 RMK AO2 SLP286 T10501167
VFR -4.4°C / °C 360º 16kt Gust 24kt >10km - Scattered Clouds 5000ft 1028 - KHYA 270056Z 36016G24KT 10SM SCT050 M04/M16 A3035 RMK AO2 SLP281 T10441161
VFR -3.9°C / °C 350º 11kt Gust 19kt >10km - Scattered Clouds 4700ft 1027 - KHYA 262356Z 35011G19KT 10SM SCT047 M04/M16 A3033 RMK AO2 SLP271 T10391156 11017 21039 53030
VFR -3.9°C / °C 340º 9kt >10km - Few Clouds 4600ft 1026 - KHYA 262256Z 34009KT 10SM FEW046 M04/M15 A3030 RMK AO2 SLP261 T10391150
VFR -3.9°C / °C 350º 10kt >10km - Clear 1025 - KHYA 262156Z 35010KT 10SM CLR M04/M15 A3026 RMK AO2 SLP250 T10391150
VFR -2.8°C / °C 340º variable 310º to 010º 9kt Gust 15kt >10km - Clear 1024 - KHYA 262056Z 34009G15KT 310V010 10SM CLR M03/M14 A3024 RMK AO2 SLP241 T10281139 53014
VFR -1.7°C / °C 10º 11kt >10km - Clear 1023 - KHYA 261956Z 01011KT 10SM CLR M02/M13 A3022 RMK AO2 SLP235 T10171133
VFR -1.7°C / °C 350º 13kt >10km - Clear 1022 - KHYA 261856Z 35013KT 10SM CLR M02/M13 A3020 RMK AO2 SLP229 T10171128
VFR -1.7°C / °C 10º 12kt Gust 19kt >10km - Clear 1022 - KHYA 261756Z 01012G19KT 10SM CLR M02/M14 A3019 RMK AO2 SLP227 T10171139 11011 21028 58009
VFR -1.7°C / °C 320º 12kt Gust 20kt >10km - Clear 1023 - KHYA 261656Z 32012G20KT 10SM CLR M02/M12 A3021 RMK AO2 SLP231 T10171122
VFR -1.7°C / °C 330º 14kt Gust 20kt >10km - Clear 1023 - KHYA 261556Z 33014G20KT 10SM CLR M02/M12 A3022 RMK AO2 SLP236 T10171122
VFR -1.7°C / °C 340º 13kt >10km - Clear 1023 - KHYA 261456Z 34013KT 10SM CLR M02/M13 A3022 RMK AO2 SLP236 T10171128 51019
VFR -2.2°C / °C 330º 9kt Gust 18kt >10km - Clear 1023 - KHYA 261356Z 33009G18KT 10SM CLR M02/M13 A3021 RMK AO2 SLP231 T10221128
VFR -2.2°C / °C 330º 8kt >10km - Clear 1022 - KHYA 261256Z 33008KT 10SM CLR M02/M13 A3019 RMK AO2 SLP225 T10221128
VFR -2.8°C / °C 330º 11kt Gust 18kt >10km - Clear 1021 - KHYA 261156Z 33011G18KT 10SM CLR M03/M12 A3017 RMK AO2 SLP217 T10281122 11006 21028 53017
VFR -2.2°C / °C 330º 9kt Gust 19kt >10km - Clear 1021 - KHYA 261056Z 33009G19KT 10SM CLR M02/M11 A3015 RMK AO2 SLP210 T10221106
VFR -1.7°C / °C 340º 12kt >10km - Scattered Clouds 3900ft 1020 - KHYA 260956Z AUTO 34012KT 10SM SCT039 M02/M10 A3013 RMK AO2 SLP204 T10171100
VFR -1.7°C / -9.4°C 310º 8kt >10km - Clear 1020 - KHYA 260856Z AUTO 31008KT 10SM CLR M02/M09 A3012 RMK AO2 SLP200 T10171094 51015
VFR -1.7°C / °C 300º 7kt >10km - Clear 1019 - KHYA 260756Z AUTO 30007KT 10SM CLR M02/M10 A3011 RMK AO2 SLP196 T10171100
VFR -1.1°C / °C 320º 7kt >10km - Clear 1018 - KHYA 260656Z AUTO 32007KT 10SM CLR M01/M11 A3008 RMK AO2 SLP188 T10111106

VFR

-6.1°C / °C

[Plus]
Vent 340º 7kt
Visibilité >10km
Météo -
Nuages Clear
Pression 1029
Changement -
Brut KHYA 270556Z AUTO 34007KT 10SM CLR M06/M15 A3040 RMK AO2 SLP296 T10611150 11039 21061 51004

VFR

-6.1°C / °C

[Plus]
Vent 330º 8kt Gust 17kt
Visibilité >10km
Météo -
Nuages Clear
Pression 1029
Changement -
Brut KHYA 270456Z AUTO 33008G17KT 10SM CLR M06/M15 A3040 RMK AO2 SLP296 T10611150 400001061

VFR

-6.1°C / °C

[Plus]
Vent 340º 9kt Gust 17kt
Visibilité >10km
Météo -
Nuages Clear
Pression 1029
Changement -
Brut KHYA 270356Z AUTO 34009G17KT 10SM CLR M06/M16 A3040 RMK AO2 SLP295 T10611156

VFR

-5.6°C / °C

[Plus]
Vent 350º 14kt Gust 22kt
Visibilité >10km
Météo -
Nuages Clear
Pression 1029
Changement -
Brut KHYA 270256Z 35014G22KT 10SM CLR M06/M16 A3039 RMK AO2 SLP292 T10561161 51021

VFR

-5°C / °C

[Plus]
Vent 340º 13kt Gust 20kt
Visibilité >10km
Météo -
Nuages Few Clouds 4500ft
Pression 1028
Changement -
Brut KHYA 270156Z 34013G20KT 10SM FEW045 M05/M17 A3037 RMK AO2 SLP286 T10501167

VFR

-4.4°C / °C

[Plus]
Vent 360º 16kt Gust 24kt
Visibilité >10km
Météo -
Nuages Scattered Clouds 5000ft
Pression 1028
Changement -
Brut KHYA 270056Z 36016G24KT 10SM SCT050 M04/M16 A3035 RMK AO2 SLP281 T10441161

VFR

-3.9°C / °C

[Plus]
Vent 350º 11kt Gust 19kt
Visibilité >10km
Météo -
Nuages Scattered Clouds 4700ft
Pression 1027
Changement -
Brut KHYA 262356Z 35011G19KT 10SM SCT047 M04/M16 A3033 RMK AO2 SLP271 T10391156 11017 21039 53030

VFR

-3.9°C / °C

[Plus]
Vent 340º 9kt
Visibilité >10km
Météo -
Nuages Few Clouds 4600ft
Pression 1026
Changement -
Brut KHYA 262256Z 34009KT 10SM FEW046 M04/M15 A3030 RMK AO2 SLP261 T10391150

VFR

-3.9°C / °C

[Plus]
Vent 350º 10kt
Visibilité >10km
Météo -
Nuages Clear
Pression 1025
Changement -
Brut KHYA 262156Z 35010KT 10SM CLR M04/M15 A3026 RMK AO2 SLP250 T10391150

VFR

-2.8°C / °C

[Plus]
Vent 340º variable 310º to 010º 9kt Gust 15kt
Visibilité >10km
Météo -
Nuages Clear
Pression 1024
Changement -
Brut KHYA 262056Z 34009G15KT 310V010 10SM CLR M03/M14 A3024 RMK AO2 SLP241 T10281139 53014

VFR

-1.7°C / °C

[Plus]
Vent 10º 11kt
Visibilité >10km
Météo -
Nuages Clear
Pression 1023
Changement -
Brut KHYA 261956Z 01011KT 10SM CLR M02/M13 A3022 RMK AO2 SLP235 T10171133

VFR

-1.7°C / °C

[Plus]
Vent 350º 13kt
Visibilité >10km
Météo -
Nuages Clear
Pression 1022
Changement -
Brut KHYA 261856Z 35013KT 10SM CLR M02/M13 A3020 RMK AO2 SLP229 T10171128

VFR

-1.7°C / °C

[Plus]
Vent 10º 12kt Gust 19kt
Visibilité >10km
Météo -
Nuages Clear
Pression 1022
Changement -
Brut KHYA 261756Z 01012G19KT 10SM CLR M02/M14 A3019 RMK AO2 SLP227 T10171139 11011 21028 58009

VFR

-1.7°C / °C

[Plus]
Vent 320º 12kt Gust 20kt
Visibilité >10km
Météo -
Nuages Clear
Pression 1023
Changement -
Brut KHYA 261656Z 32012G20KT 10SM CLR M02/M12 A3021 RMK AO2 SLP231 T10171122

VFR

-1.7°C / °C

[Plus]
Vent 330º 14kt Gust 20kt
Visibilité >10km
Météo -
Nuages Clear
Pression 1023
Changement -
Brut KHYA 261556Z 33014G20KT 10SM CLR M02/M12 A3022 RMK AO2 SLP236 T10171122

VFR

-1.7°C / °C

[Plus]
Vent 340º 13kt
Visibilité >10km
Météo -
Nuages Clear
Pression 1023
Changement -
Brut KHYA 261456Z 34013KT 10SM CLR M02/M13 A3022 RMK AO2 SLP236 T10171128 51019

VFR

-2.2°C / °C

[Plus]
Vent 330º 9kt Gust 18kt
Visibilité >10km
Météo -
Nuages Clear
Pression 1023
Changement -
Brut KHYA 261356Z 33009G18KT 10SM CLR M02/M13 A3021 RMK AO2 SLP231 T10221128

VFR

-2.2°C / °C

[Plus]
Vent 330º 8kt
Visibilité >10km
Météo -
Nuages Clear
Pression 1022
Changement -
Brut KHYA 261256Z 33008KT 10SM CLR M02/M13 A3019 RMK AO2 SLP225 T10221128

VFR

-2.8°C / °C

[Plus]
Vent 330º 11kt Gust 18kt
Visibilité >10km
Météo -
Nuages Clear
Pression 1021
Changement -
Brut KHYA 261156Z 33011G18KT 10SM CLR M03/M12 A3017 RMK AO2 SLP217 T10281122 11006 21028 53017

VFR

-2.2°C / °C

[Plus]
Vent 330º 9kt Gust 19kt
Visibilité >10km
Météo -
Nuages Clear
Pression 1021
Changement -
Brut KHYA 261056Z 33009G19KT 10SM CLR M02/M11 A3015 RMK AO2 SLP210 T10221106

VFR

-1.7°C / °C

[Plus]
Vent 340º 12kt
Visibilité >10km
Météo -
Nuages Scattered Clouds 3900ft
Pression 1020
Changement -
Brut KHYA 260956Z AUTO 34012KT 10SM SCT039 M02/M10 A3013 RMK AO2 SLP204 T10171100

VFR

-1.7°C / -9.4°C

[Plus]
Vent 310º 8kt
Visibilité >10km
Météo -
Nuages Clear
Pression 1020
Changement -
Brut KHYA 260856Z AUTO 31008KT 10SM CLR M02/M09 A3012 RMK AO2 SLP200 T10171094 51015

VFR

-1.7°C / °C

[Plus]
Vent 300º 7kt
Visibilité >10km
Météo -
Nuages Clear
Pression 1019
Changement -
Brut KHYA 260756Z AUTO 30007KT 10SM CLR M02/M10 A3011 RMK AO2 SLP196 T10171100

VFR

-1.1°C / °C

[Plus]
Vent 320º 7kt
Visibilité >10km
Météo -
Nuages Clear
Pression 1018
Changement -
Brut KHYA 260656Z AUTO 32007KT 10SM CLR M01/M11 A3008 RMK AO2 SLP188 T10111106

TAF pour Barnstable (KHYA)

From till


From till Wind 340º 9kt. Gust 17kt. Visibility 10km or more. Scattered Clouds 3500ft.
From till Wind 340º 6kt. Visibility 10km or more. Scattered Clouds 20000ft.
From till Wind 320º 3kt. Visibility 10km or more. Few Clouds 20000ft.
From till Wind 230º 6kt. Visibility 10km or more. Few Clouds 20000ft.
From till Wind 200º 7kt. Visibility 10km or more. Few Clouds 20000ft.
From till Wind 210º 9kt. Visibility 10km or more. Broken Clouds 15000ft.

Brut: KHYA 270526Z 2706/2806 34009G17KT P6SM SCT035 FM271100 34006KT P6SM SCT200 FM271500 32003KT P6SM FEW200 FM271700 23006KT P6SM FEW200 FM271800 20007KT P6SM FEW200 FM280000 21009KT P6SM BKN150

Radar et prévision de précipitation à court terme pour Barnstable

Bruine
Légère
Modéré
Fort
Très fort
Grêle

Le marqueur est placé sur Barnstable. Cette animation montre le Radar des précipitations pour les dernières heures, ainsi qu'une 1h prévision. La bruine ou les légères chutes de neiges peuvent ne pas être détectées par le radar. L'intensité des précipitations est visible avec un code couleur allant du bleu clair au violet foncé et orange.

Les images satellites pour Barnstable, États Unis

Le marqueur est placé sur Barnstable. [Plus]

L'image satellite en temps réel combine la lumière visible pendant la journée et le rayonnement infrarouge pendant la nuit. La nuit, l'image n'est pas sombre car le rayonnement infrarouge permet de détecter les différences de température. Malheureusement, les nuages bas et le brouillard sont difficiles à distinguer des températures au sol et peuvent donc être presque invisibles pendant la nuit. Les images des satellites Météosat pour l'Europe sont mises à jour en temps réel toutes les 5 minutes. Les images GOES-16/GOES-17 (Amérique du Nord et du Sud) et Himawari (Asie) sont mises à jour toutes les 10 minutes.